松山國際航空站 - 塔臺(一站)

METAR RCSS 212300Z 19003KT 150V220 9999 FEW025 SCT250 29/25 Q1013 NOSIG RMK A2993=

站台狀態:Offline
最後更新:2018-09-22 07:30:02